sensor_id;sensor_type;location;lat;lon;timestamp;P1;durP1;ratioP1;P2;durP2;ratioP2
76852;SDS011;65825;52.232;10.566;2023-02-28T00:00:49;9.18;;;4.60;;
76852;SDS011;65825;52.232;10.566;2023-02-28T00:03:14;9.20;;;4.40;;
76852;SDS011;65825;52.232;10.566;2023-02-28T00:05:39;9.97;;;4.20;;
76852;SDS011;65825;52.232;10.566;2023-02-28T00:08:04;12.27;;;4.60;;
76852;SDS011;65825;52.232;10.566;2023-02-28T00:10:30;8.80;;;4.25;;
76852;SDS011;65825;52.232;10.566;2023-02-28T00:13:03;10.23;;;4.18;;
76852;SDS011;65825;52.232;10.566;2023-02-28T00:15:31;9.95;;;4.80;;
76852;SDS011;65825;52.232;10.566;2023-02-28T00:17:59;10.27;;;5.05;;
76852;SDS011;65825;52.232;10.566;2023-02-28T00:20:24;9.67;;;4.67;;
76852;SDS011;65825;52.232;10.566;2023-02-28T00:22:51;11.82;;;4.60;;
76852;SDS011;65825;52.232;10.566;2023-02-28T00:25:18;10.95;;;5.05;;
76852;SDS011;65825;52.232;10.566;2023-02-28T00:27:45;10.15;;;5.15;;
76852;SDS011;65825;52.232;10.566;2023-02-28T00:30:12;10.50;;;5.25;;
76852;SDS011;65825;52.232;10.566;2023-02-28T00:32:43;9.07;;;4.68;;
76852;SDS011;65825;52.232;10.566;2023-02-28T00:35:08;10.40;;;4.88;;
76852;SDS011;65825;52.232;10.566;2023-02-28T00:37:35;11.05;;;4.45;;
76852;SDS011;65825;52.232;10.566;2023-02-28T00:40:00;11.07;;;4.63;;
76852;SDS011;65825;52.232;10.566;2023-02-28T00:42:26;9.23;;;4.70;;
76852;SDS011;65825;52.232;10.566;2023-02-28T00:44:52;12.25;;;4.60;;
76852;SDS011;65825;52.232;10.566;2023-02-28T00:47:17;12.35;;;5.15;;
76852;SDS011;65825;52.232;10.566;2023-02-28T00:49:42;11.27;;;4.88;;
76852;SDS011;65825;52.232;10.566;2023-02-28T00:52:08;9.70;;;4.97;;
76852;SDS011;65825;52.232;10.566;2023-02-28T00:54:33;13.18;;;4.70;;
76852;SDS011;65825;52.232;10.566;2023-02-28T00:56:58;12.17;;;5.30;;
76852;SDS011;65825;52.232;10.566;2023-02-28T00:59:24;10.00;;;4.65;;
76852;SDS011;65825;52.232;10.566;2023-02-28T01:01:50;11.98;;;4.68;;
76852;SDS011;65825;52.232;10.566;2023-02-28T01:04:15;8.57;;;4.50;;
76852;SDS011;65825;52.232;10.566;2023-02-28T01:06:40;11.50;;;4.80;;
76852;SDS011;65825;52.232;10.566;2023-02-28T01:09:07;11.85;;;5.20;;
76852;SDS011;65825;52.232;10.566;2023-02-28T01:11:33;9.38;;;4.63;;
76852;SDS011;65825;52.232;10.566;2023-02-28T01:13:59;10.38;;;4.35;;
76852;SDS011;65825;52.232;10.566;2023-02-28T01:16:26;8.60;;;4.57;;
76852;SDS011;65825;52.232;10.566;2023-02-28T01:18:51;9.45;;;3.95;;
76852;SDS011;65825;52.232;10.566;2023-02-28T01:21:17;9.02;;;4.57;;
76852;SDS011;65825;52.232;10.566;2023-02-28T01:26:10;8.52;;;4.03;;
76852;SDS011;65825;52.232;10.566;2023-02-28T01:28:38;9.25;;;4.20;;
76852;SDS011;65825;52.232;10.566;2023-02-28T01:31:04;9.38;;;4.25;;
76852;SDS011;65825;52.232;10.566;2023-02-28T01:33:29;8.57;;;3.85;;
76852;SDS011;65825;52.232;10.566;2023-02-28T01:36:02;8.25;;;4.22;;
76852;SDS011;65825;52.232;10.566;2023-02-28T01:38:29;9.45;;;4.55;;
76852;SDS011;65825;52.232;10.566;2023-02-28T01:40:54;9.60;;;4.55;;
76852;SDS011;65825;52.232;10.566;2023-02-28T01:43:24;8.88;;;4.82;;
76852;SDS011;65825;52.232;10.566;2023-02-28T01:45:57;8.80;;;4.22;;
76852;SDS011;65825;52.232;10.566;2023-02-28T01:51:02;10.40;;;4.47;;
76852;SDS011;65825;52.232;10.566;2023-02-28T01:53:34;8.77;;;4.18;;
76852;SDS011;65825;52.232;10.566;2023-02-28T01:56:06;10.02;;;4.60;;
76852;SDS011;65825;52.232;10.566;2023-02-28T01:58:34;10.25;;;4.80;;
76852;SDS011;65825;52.232;10.566;2023-02-28T02:01:01;8.82;;;4.15;;
76852;SDS011;65825;52.232;10.566;2023-02-28T02:03:27;9.18;;;4.07;;
76852;SDS011;65825;52.232;10.566;2023-02-28T02:05:55;9.38;;;4.22;;
76852;SDS011;65825;52.232;10.566;2023-02-28T02:08:22;8.52;;;4.10;;
76852;SDS011;65825;52.232;10.566;2023-02-28T02:10:50;7.68;;;4.10;;
76852;SDS011;65825;52.232;10.566;2023-02-28T02:21:08;9.00;;;4.45;;
76852;SDS011;65825;52.232;10.566;2023-02-28T02:30:21;10.77;;;4.65;;
76852;SDS011;65825;52.232;10.566;2023-02-28T02:33:15;9.95;;;4.82;;
76852;SDS011;65825;52.232;10.566;2023-02-28T02:41:33;9.25;;;4.43;;
76852;SDS011;65825;52.232;10.566;2023-02-28T02:44:10;10.18;;;3.97;;
76852;SDS011;65825;52.232;10.566;2023-02-28T02:46:43;10.68;;;4.72;;
76852;SDS011;65825;52.232;10.566;2023-02-28T02:49:16;10.95;;;4.70;;
76852;SDS011;65825;52.232;10.566;2023-02-28T02:51:46;11.80;;;4.65;;
76852;SDS011;65825;52.232;10.566;2023-02-28T02:54:21;10.07;;;4.50;;
76852;SDS011;65825;52.232;10.566;2023-02-28T02:56:53;10.98;;;4.65;;
76852;SDS011;65825;52.232;10.566;2023-02-28T02:59:21;7.35;;;3.83;;
76852;SDS011;65825;52.232;10.566;2023-02-28T03:04:17;8.30;;;4.10;;
76852;SDS011;65825;52.232;10.566;2023-02-28T03:06:44;7.55;;;3.78;;
76852;SDS011;65825;52.232;10.566;2023-02-28T03:09:10;8.10;;;3.50;;
76852;SDS011;65825;52.232;10.566;2023-02-28T03:11:35;8.40;;;3.67;;
76852;SDS011;65825;52.232;10.566;2023-02-28T03:14:05;10.13;;;4.70;;
76852;SDS011;65825;52.232;10.566;2023-02-28T03:22:06;9.65;;;4.13;;
76852;SDS011;65825;52.232;10.566;2023-02-28T03:27:22;9.18;;;4.15;;
76852;SDS011;65825;52.232;10.566;2023-02-28T03:30:00;7.78;;;3.80;;
76852;SDS011;65825;52.232;10.566;2023-02-28T03:32:34;5.82;;;3.20;;
76852;SDS011;65825;52.232;10.566;2023-02-28T03:35:18;7.40;;;3.92;;
76852;SDS011;65825;52.232;10.566;2023-02-28T03:37:46;8.02;;;4.10;;
76852;SDS011;65825;52.232;10.566;2023-02-28T03:40:15;9.70;;;4.38;;
76852;SDS011;65825;52.232;10.566;2023-02-28T03:42:47;7.57;;;3.80;;
76852;SDS011;65825;52.232;10.566;2023-02-28T03:45:17;8.52;;;3.95;;
76852;SDS011;65825;52.232;10.566;2023-02-28T03:48:01;6.50;;;3.50;;
76852;SDS011;65825;52.232;10.566;2023-02-28T03:50:37;10.00;;;4.18;;
76852;SDS011;65825;52.232;10.566;2023-02-28T03:56:03;6.97;;;3.67;;
76852;SDS011;65825;52.232;10.566;2023-02-28T04:01:21;5.28;;;2.95;;
76852;SDS011;65825;52.232;10.566;2023-02-28T04:03:50;7.78;;;3.10;;
76852;SDS011;65825;52.232;10.566;2023-02-28T04:06:18;6.80;;;3.10;;
76852;SDS011;65825;52.232;10.566;2023-02-28T04:08:44;5.13;;;2.67;;
76852;SDS011;65825;52.232;10.566;2023-02-28T04:13:41;5.15;;;3.05;;
76852;SDS011;65825;52.232;10.566;2023-02-28T04:16:07;6.85;;;3.05;;
76852;SDS011;65825;52.232;10.566;2023-02-28T04:18:37;6.22;;;2.90;;
76852;SDS011;65825;52.232;10.566;2023-02-28T04:21:03;6.65;;;2.97;;
76852;SDS011;65825;52.232;10.566;2023-02-28T04:23:28;8.77;;;3.30;;
76852;SDS011;65825;52.232;10.566;2023-02-28T04:25:55;5.63;;;2.90;;
76852;SDS011;65825;52.232;10.566;2023-02-28T04:28:20;6.25;;;2.78;;
76852;SDS011;65825;52.232;10.566;2023-02-28T04:30:45;4.87;;;3.07;;
76852;SDS011;65825;52.232;10.566;2023-02-28T04:33:11;6.40;;;2.65;;
76852;SDS011;65825;52.232;10.566;2023-02-28T04:35:36;6.88;;;2.85;;
76852;SDS011;65825;52.232;10.566;2023-02-28T04:38:01;4.40;;;2.67;;
76852;SDS011;65825;52.232;10.566;2023-02-28T04:40:27;6.43;;;3.03;;
76852;SDS011;65825;52.232;10.566;2023-02-28T04:42:52;5.63;;;2.70;;
76852;SDS011;65825;52.232;10.566;2023-02-28T04:45:19;5.57;;;3.17;;
76852;SDS011;65825;52.232;10.566;2023-02-28T04:47:45;5.43;;;2.87;;
76852;SDS011;65825;52.232;10.566;2023-02-28T04:50:10;7.90;;;3.03;;
76852;SDS011;65825;52.232;10.566;2023-02-28T04:52:35;5.63;;;3.10;;
76852;SDS011;65825;52.232;10.566;2023-02-28T04:55:01;5.73;;;3.00;;
76852;SDS011;65825;52.232;10.566;2023-02-28T04:57:26;8.85;;;3.10;;
76852;SDS011;65825;52.232;10.566;2023-02-28T04:59:52;6.60;;;2.63;;
76852;SDS011;65825;52.232;10.566;2023-02-28T05:02:17;5.60;;;3.00;;
76852;SDS011;65825;52.232;10.566;2023-02-28T05:04:46;6.53;;;2.55;;
76852;SDS011;65825;52.232;10.566;2023-02-28T05:07:11;9.43;;;2.55;;
76852;SDS011;65825;52.232;10.566;2023-02-28T05:09:36;7.97;;;2.92;;
76852;SDS011;65825;52.232;10.566;2023-02-28T05:12:02;5.07;;;2.67;;
76852;SDS011;65825;52.232;10.566;2023-02-28T05:14:28;7.07;;;2.95;;
76852;SDS011;65825;52.232;10.566;2023-02-28T05:16:53;5.80;;;2.80;;
76852;SDS011;65825;52.232;10.566;2023-02-28T05:19:18;4.83;;;2.70;;
76852;SDS011;65825;52.232;10.566;2023-02-28T05:21:54;8.57;;;3.33;;
76852;SDS011;65825;52.232;10.566;2023-02-28T05:24:20;5.90;;;3.03;;
76852;SDS011;65825;52.232;10.566;2023-02-28T05:26:47;9.77;;;3.70;;
76852;SDS011;65825;52.232;10.566;2023-02-28T05:29:13;6.18;;;3.10;;
76852;SDS011;65825;52.232;10.566;2023-02-28T05:31:39;7.63;;;3.43;;
76852;SDS011;65825;52.232;10.566;2023-02-28T05:34:04;5.47;;;2.92;;
76852;SDS011;65825;52.232;10.566;2023-02-28T05:36:29;5.60;;;3.30;;
76852;SDS011;65825;52.232;10.566;2023-02-28T05:38:55;6.65;;;3.53;;
76852;SDS011;65825;52.232;10.566;2023-02-28T05:41:20;7.50;;;3.33;;
76852;SDS011;65825;52.232;10.566;2023-02-28T05:43:46;8.23;;;3.47;;
76852;SDS011;65825;52.232;10.566;2023-02-28T05:46:12;7.50;;;3.58;;
76852;SDS011;65825;52.232;10.566;2023-02-28T05:48:39;6.80;;;3.30;;
76852;SDS011;65825;52.232;10.566;2023-02-28T05:51:06;7.82;;;3.33;;
76852;SDS011;65825;52.232;10.566;2023-02-28T05:53:32;7.10;;;3.63;;
76852;SDS011;65825;52.232;10.566;2023-02-28T05:55:58;7.80;;;3.78;;
76852;SDS011;65825;52.232;10.566;2023-02-28T05:58:24;6.53;;;3.60;;
76852;SDS011;65825;52.232;10.566;2023-02-28T06:00:55;9.48;;;3.17;;
76852;SDS011;65825;52.232;10.566;2023-02-28T06:03:24;8.32;;;3.53;;
76852;SDS011;65825;52.232;10.566;2023-02-28T06:05:50;8.38;;;3.55;;
76852;SDS011;65825;52.232;10.566;2023-02-28T06:08:15;8.35;;;3.47;;
76852;SDS011;65825;52.232;10.566;2023-02-28T06:10:41;7.07;;;3.92;;
76852;SDS011;65825;52.232;10.566;2023-02-28T06:13:06;11.38;;;3.63;;
76852;SDS011;65825;52.232;10.566;2023-02-28T06:15:32;7.43;;;3.50;;
76852;SDS011;65825;52.232;10.566;2023-02-28T06:17:57;7.70;;;3.75;;
76852;SDS011;65825;52.232;10.566;2023-02-28T06:20:24;8.80;;;3.78;;
76852;SDS011;65825;52.232;10.566;2023-02-28T06:22:49;10.65;;;3.83;;
76852;SDS011;65825;52.232;10.566;2023-02-28T06:25:16;7.88;;;4.03;;
76852;SDS011;65825;52.232;10.566;2023-02-28T06:27:42;8.48;;;3.60;;
76852;SDS011;65825;52.232;10.566;2023-02-28T06:30:08;9.50;;;3.50;;
76852;SDS011;65825;52.232;10.566;2023-02-28T06:32:34;7.82;;;3.83;;
76852;SDS011;65825;52.232;10.566;2023-02-28T06:35:00;6.95;;;3.75;;
76852;SDS011;65825;52.232;10.566;2023-02-28T06:37:26;10.27;;;3.83;;
76852;SDS011;65825;52.232;10.566;2023-02-28T06:39:51;10.18;;;3.75;;
76852;SDS011;65825;52.232;10.566;2023-02-28T06:42:17;7.15;;;3.72;;
76852;SDS011;65825;52.232;10.566;2023-02-28T06:44:42;6.60;;;3.25;;
76852;SDS011;65825;52.232;10.566;2023-02-28T06:47:08;7.20;;;3.50;;
76852;SDS011;65825;52.232;10.566;2023-02-28T06:49:34;8.55;;;2.97;;
76852;SDS011;65825;52.232;10.566;2023-02-28T06:52:01;5.20;;;2.88;;
76852;SDS011;65825;52.232;10.566;2023-02-28T06:54:26;8.13;;;3.25;;
76852;SDS011;65825;52.232;10.566;2023-02-28T06:56:52;6.88;;;3.22;;
76852;SDS011;65825;52.232;10.566;2023-02-28T07:01:44;5.18;;;2.60;;
76852;SDS011;65825;52.232;10.566;2023-02-28T07:04:10;4.82;;;2.45;;
76852;SDS011;65825;52.232;10.566;2023-02-28T07:06:35;5.57;;;3.00;;
76852;SDS011;65825;52.232;10.566;2023-02-28T07:09:00;6.57;;;3.10;;
76852;SDS011;65825;52.232;10.566;2023-02-28T07:11:26;7.15;;;3.22;;
76852;SDS011;65825;52.232;10.566;2023-02-28T07:13:55;6.93;;;2.80;;
76852;SDS011;65825;52.232;10.566;2023-02-28T07:16:21;6.53;;;3.10;;
76852;SDS011;65825;52.232;10.566;2023-02-28T07:18:48;6.30;;;3.13;;
76852;SDS011;65825;52.232;10.566;2023-02-28T07:21:13;5.60;;;3.10;;
76852;SDS011;65825;52.232;10.566;2023-02-28T07:23:39;7.13;;;3.10;;
76852;SDS011;65825;52.232;10.566;2023-02-28T07:26:07;5.63;;;2.85;;
76852;SDS011;65825;52.232;10.566;2023-02-28T07:28:39;5.72;;;2.88;;
76852;SDS011;65825;52.232;10.566;2023-02-28T07:31:10;8.00;;;3.10;;
76852;SDS011;65825;52.232;10.566;2023-02-28T07:33:36;6.30;;;3.08;;
76852;SDS011;65825;52.232;10.566;2023-02-28T07:36:06;5.80;;;3.30;;
76852;SDS011;65825;52.232;10.566;2023-02-28T07:38:34;6.20;;;3.15;;
76852;SDS011;65825;52.232;10.566;2023-02-28T07:43:25;5.53;;;2.70;;
76852;SDS011;65825;52.232;10.566;2023-02-28T07:45:51;7.37;;;2.80;;
76852;SDS011;65825;52.232;10.566;2023-02-28T07:48:16;5.43;;;2.73;;
76852;SDS011;65825;52.232;10.566;2023-02-28T07:50:41;5.17;;;2.43;;
76852;SDS011;65825;52.232;10.566;2023-02-28T07:53:06;7.43;;;2.90;;
76852;SDS011;65825;52.232;10.566;2023-02-28T07:55:32;7.00;;;2.93;;
76852;SDS011;65825;52.232;10.566;2023-02-28T07:57:57;8.02;;;3.05;;
76852;SDS011;65825;52.232;10.566;2023-02-28T08:00:23;7.15;;;2.97;;
76852;SDS011;65825;52.232;10.566;2023-02-28T08:02:48;6.43;;;3.28;;
76852;SDS011;65825;52.232;10.566;2023-02-28T08:05:14;7.70;;;3.58;;
76852;SDS011;65825;52.232;10.566;2023-02-28T08:07:39;7.20;;;3.30;;
76852;SDS011;65825;52.232;10.566;2023-02-28T08:10:05;6.50;;;3.13;;
76852;SDS011;65825;52.232;10.566;2023-02-28T08:12:30;6.50;;;3.22;;
76852;SDS011;65825;52.232;10.566;2023-02-28T08:14:56;4.30;;;2.45;;
76852;SDS011;65825;52.232;10.566;2023-02-28T08:17:21;5.47;;;2.53;;
76852;SDS011;65825;52.232;10.566;2023-02-28T08:19:46;6.28;;;2.55;;
76852;SDS011;65825;52.232;10.566;2023-02-28T08:22:12;5.70;;;2.53;;
76852;SDS011;65825;52.232;10.566;2023-02-28T08:24:37;8.10;;;2.85;;
76852;SDS011;65825;52.232;10.566;2023-02-28T08:27:03;5.55;;;2.40;;
76852;SDS011;65825;52.232;10.566;2023-02-28T08:29:28;7.18;;;2.63;;
76852;SDS011;65825;52.232;10.566;2023-02-28T08:31:55;5.22;;;2.58;;
76852;SDS011;65825;52.232;10.566;2023-02-28T08:34:20;5.35;;;2.53;;
76852;SDS011;65825;52.232;10.566;2023-02-28T08:36:45;7.30;;;2.30;;
76852;SDS011;65825;52.232;10.566;2023-02-28T08:39:11;5.50;;;2.63;;
76852;SDS011;65825;52.232;10.566;2023-02-28T08:41:37;8.18;;;2.60;;
76852;SDS011;65825;52.232;10.566;2023-02-28T08:44:02;4.63;;;2.50;;
76852;SDS011;65825;52.232;10.566;2023-02-28T08:46:30;9.05;;;2.80;;
76852;SDS011;65825;52.232;10.566;2023-02-28T08:48:55;5.33;;;2.57;;
76852;SDS011;65825;52.232;10.566;2023-02-28T08:51:24;7.88;;;2.50;;
76852;SDS011;65825;52.232;10.566;2023-02-28T08:53:54;5.93;;;2.72;;
76852;SDS011;65825;52.232;10.566;2023-02-28T08:56:22;5.47;;;2.45;;
76852;SDS011;65825;52.232;10.566;2023-02-28T08:58:48;6.40;;;2.70;;
76852;SDS011;65825;52.232;10.566;2023-02-28T09:01:18;7.05;;;2.90;;
76852;SDS011;65825;52.232;10.566;2023-02-28T09:03:46;6.70;;;2.80;;
76852;SDS011;65825;52.232;10.566;2023-02-28T09:06:13;7.05;;;2.83;;
76852;SDS011;65825;52.232;10.566;2023-02-28T09:08:39;5.40;;;2.55;;
76852;SDS011;65825;52.232;10.566;2023-02-28T09:11:05;5.68;;;2.75;;
76852;SDS011;65825;52.232;10.566;2023-02-28T09:13:32;6.75;;;2.60;;
76852;SDS011;65825;52.232;10.566;2023-02-28T09:15:58;6.30;;;2.90;;
76852;SDS011;65825;52.232;10.566;2023-02-28T09:18:25;9.35;;;3.00;;
76852;SDS011;65825;52.232;10.566;2023-02-28T09:20:51;5.72;;;2.70;;
76852;SDS011;65825;52.232;10.566;2023-02-28T09:23:16;8.65;;;2.65;;
76852;SDS011;65825;52.232;10.566;2023-02-28T09:25:46;5.28;;;3.20;;
76852;SDS011;65825;52.232;10.566;2023-02-28T09:28:16;5.63;;;2.67;;
76852;SDS011;65825;52.232;10.566;2023-02-28T09:30:43;5.25;;;2.92;;
76852;SDS011;65825;52.232;10.566;2023-02-28T09:33:09;6.18;;;2.67;;
76852;SDS011;65825;52.232;10.566;2023-02-28T09:35:35;7.07;;;2.97;;
76852;SDS011;65825;52.232;10.566;2023-02-28T09:38:02;7.45;;;2.90;;
76852;SDS011;65825;52.232;10.566;2023-02-28T09:40:27;6.18;;;3.00;;
76852;SDS011;65825;52.232;10.566;2023-02-28T09:42:53;6.80;;;3.07;;
76852;SDS011;65825;52.232;10.566;2023-02-28T09:45:28;6.15;;;2.83;;
76852;SDS011;65825;52.232;10.566;2023-02-28T09:47:59;5.88;;;2.95;;
76852;SDS011;65825;52.232;10.566;2023-02-28T09:50:30;6.70;;;2.85;;
76852;SDS011;65825;52.232;10.566;2023-02-28T09:53:02;4.47;;;2.53;;
76852;SDS011;65825;52.232;10.566;2023-02-28T09:55:35;7.85;;;3.13;;
76852;SDS011;65825;52.232;10.566;2023-02-28T09:58:08;7.30;;;2.67;;
76852;SDS011;65825;52.232;10.566;2023-02-28T10:00:43;4.97;;;2.80;;
76852;SDS011;65825;52.232;10.566;2023-02-28T10:03:22;6.43;;;2.63;;
76852;SDS011;65825;52.232;10.566;2023-02-28T10:08:50;6.80;;;2.80;;
76852;SDS011;65825;52.232;10.566;2023-02-28T10:11:22;4.93;;;2.80;;
76852;SDS011;65825;52.232;10.566;2023-02-28T10:13:51;7.28;;;2.95;;
76852;SDS011;65825;52.232;10.566;2023-02-28T10:16:20;4.55;;;2.70;;
76852;SDS011;65825;52.232;10.566;2023-02-28T10:19:02;5.00;;;3.00;;
76852;SDS011;65825;52.232;10.566;2023-02-28T10:21:38;7.50;;;3.33;;
76852;SDS011;65825;52.232;10.566;2023-02-28T10:26:37;6.75;;;3.10;;
76852;SDS011;65825;52.232;10.566;2023-02-28T10:31:27;5.30;;;2.93;;
76852;SDS011;65825;52.232;10.566;2023-02-28T10:33:53;5.35;;;2.88;;
76852;SDS011;65825;52.232;10.566;2023-02-28T10:38:46;5.43;;;2.78;;
76852;SDS011;65825;52.232;10.566;2023-02-28T10:41:14;5.43;;;3.15;;
76852;SDS011;65825;52.232;10.566;2023-02-28T10:43:52;5.60;;;3.03;;
76852;SDS011;65825;52.232;10.566;2023-02-28T10:46:36;6.78;;;3.08;;
76852;SDS011;65825;52.232;10.566;2023-02-28T10:49:06;4.30;;;2.92;;
76852;SDS011;65825;52.232;10.566;2023-02-28T10:51:39;4.82;;;3.00;;
76852;SDS011;65825;52.232;10.566;2023-02-28T10:54:05;5.40;;;3.53;;
76852;SDS011;65825;52.232;10.566;2023-02-28T10:56:40;5.63;;;3.40;;
76852;SDS011;65825;52.232;10.566;2023-02-28T11:01:43;6.53;;;3.40;;
76852;SDS011;65825;52.232;10.566;2023-02-28T11:06:46;6.22;;;3.20;;
76852;SDS011;65825;52.232;10.566;2023-02-28T11:09:20;5.20;;;3.40;;
76852;SDS011;65825;52.232;10.566;2023-02-28T11:11:50;6.90;;;3.50;;
76852;SDS011;65825;52.232;10.566;2023-02-28T11:14:19;4.70;;;3.53;;
76852;SDS011;65825;52.232;10.566;2023-02-28T11:16:47;5.07;;;3.38;;
76852;SDS011;65825;52.232;10.566;2023-02-28T11:19:19;4.78;;;3.25;;
76852;SDS011;65825;52.232;10.566;2023-02-28T11:21:52;5.05;;;3.30;;
76852;SDS011;65825;52.232;10.566;2023-02-28T11:24:23;5.00;;;3.42;;
76852;SDS011;65825;52.232;10.566;2023-02-28T11:26:53;6.90;;;3.47;;
76852;SDS011;65825;52.232;10.566;2023-02-28T11:29:21;5.38;;;3.00;;
76852;SDS011;65825;52.232;10.566;2023-02-28T11:34:59;5.18;;;3.00;;
76852;SDS011;65825;52.232;10.566;2023-02-28T11:37:27;4.68;;;3.20;;
76852;SDS011;65825;52.232;10.566;2023-02-28T11:39:53;5.20;;;3.38;;
76852;SDS011;65825;52.232;10.566;2023-02-28T11:48:14;5.30;;;3.00;;
76852;SDS011;65825;52.232;10.566;2023-02-28T11:58:48;5.18;;;2.80;;
76852;SDS011;65825;52.232;10.566;2023-02-28T12:01:36;4.47;;;2.90;;
76852;SDS011;65825;52.232;10.566;2023-02-28T12:04:22;3.80;;;2.75;;
76852;SDS011;65825;52.232;10.566;2023-02-28T12:07:00;4.65;;;2.97;;
76852;SDS011;65825;52.232;10.566;2023-02-28T12:09:47;5.88;;;2.65;;
76852;SDS011;65825;52.232;10.566;2023-02-28T12:15:19;4.90;;;2.72;;
76852;SDS011;65825;52.232;10.566;2023-02-28T12:26:33;7.10;;;3.20;;
76852;SDS011;65825;52.232;10.566;2023-02-28T12:29:10;4.50;;;2.78;;
76852;SDS011;65825;52.232;10.566;2023-02-28T12:31:49;4.13;;;2.65;;
76852;SDS011;65825;52.232;10.566;2023-02-28T12:34:20;4.35;;;2.95;;
76852;SDS011;65825;52.232;10.566;2023-02-28T12:36:50;5.15;;;3.00;;
76852;SDS011;65825;52.232;10.566;2023-02-28T12:39:20;6.07;;;2.85;;
76852;SDS011;65825;52.232;10.566;2023-02-28T12:47:17;4.60;;;2.90;;
76852;SDS011;65825;52.232;10.566;2023-02-28T12:49:45;5.75;;;3.10;;
76852;SDS011;65825;52.232;10.566;2023-02-28T12:52:17;4.75;;;2.90;;
76852;SDS011;65825;52.232;10.566;2023-02-28T12:54:59;4.85;;;3.00;;
76852;SDS011;65825;52.232;10.566;2023-02-28T12:57:38;4.60;;;2.97;;
76852;SDS011;65825;52.232;10.566;2023-02-28T13:00:16;4.82;;;2.90;;
76852;SDS011;65825;52.232;10.566;2023-02-28T13:02:49;5.20;;;2.92;;
76852;SDS011;65825;52.232;10.566;2023-02-28T13:05:46;4.20;;;2.50;;
76852;SDS011;65825;52.232;10.566;2023-02-28T13:14:01;4.72;;;2.72;;
76852;SDS011;65825;52.232;10.566;2023-02-28T13:16:28;5.15;;;2.90;;
76852;SDS011;65825;52.232;10.566;2023-02-28T13:19:22;5.15;;;2.80;;
76852;SDS011;65825;52.232;10.566;2023-02-28T13:21:50;4.22;;;2.85;;
76852;SDS011;65825;52.232;10.566;2023-02-28T13:29:39;6.00;;;3.43;;
76852;SDS011;65825;52.232;10.566;2023-02-28T13:34:36;5.45;;;3.40;;
76852;SDS011;65825;52.232;10.566;2023-02-28T13:50:23;5.30;;;3.33;;
76852;SDS011;65825;52.232;10.566;2023-02-28T13:55:24;5.72;;;3.60;;
76852;SDS011;65825;52.232;10.566;2023-02-28T13:58:08;6.43;;;3.80;;
76852;SDS011;65825;52.232;10.566;2023-02-28T14:04:13;5.30;;;3.42;;
76852;SDS011;65825;52.232;10.566;2023-02-28T14:06:52;5.35;;;3.38;;
76852;SDS011;65825;52.232;10.566;2023-02-28T14:11:54;5.95;;;3.72;;
76852;SDS011;65825;52.232;10.566;2023-02-28T14:17:04;7.10;;;3.50;;
76852;SDS011;65825;52.232;10.566;2023-02-28T14:19:32;7.22;;;3.60;;
76852;SDS011;65825;52.232;10.566;2023-02-28T14:22:09;7.03;;;3.33;;
76852;SDS011;65825;52.232;10.566;2023-02-28T14:25:10;5.80;;;3.47;;
76852;SDS011;65825;52.232;10.566;2023-02-28T14:28:08;5.88;;;3.30;;
76852;SDS011;65825;52.232;10.566;2023-02-28T14:33:48;6.53;;;3.53;;
76852;SDS011;65825;52.232;10.566;2023-02-28T14:36:21;5.97;;;3.80;;
76852;SDS011;65825;52.232;10.566;2023-02-28T14:38:57;5.85;;;3.75;;
76852;SDS011;65825;52.232;10.566;2023-02-28T14:41:30;6.93;;;3.80;;
76852;SDS011;65825;52.232;10.566;2023-02-28T14:44:00;6.72;;;3.40;;
76852;SDS011;65825;52.232;10.566;2023-02-28T14:46:28;5.82;;;3.67;;
76852;SDS011;65825;52.232;10.566;2023-02-28T14:49:01;6.95;;;3.47;;
76852;SDS011;65825;52.232;10.566;2023-02-28T14:51:29;6.93;;;3.70;;
76852;SDS011;65825;52.232;10.566;2023-02-28T14:56:43;5.22;;;3.20;;
76852;SDS011;65825;52.232;10.566;2023-02-28T14:59:25;6.55;;;3.63;;
76852;SDS011;65825;52.232;10.566;2023-02-28T15:02:12;7.90;;;3.70;;
76852;SDS011;65825;52.232;10.566;2023-02-28T15:04:55;6.53;;;3.67;;
76852;SDS011;65825;52.232;10.566;2023-02-28T15:07:22;7.70;;;3.75;;
76852;SDS011;65825;52.232;10.566;2023-02-28T15:10:07;7.97;;;3.83;;
76852;SDS011;65825;52.232;10.566;2023-02-28T15:12:39;6.15;;;3.67;;
76852;SDS011;65825;52.232;10.566;2023-02-28T15:15:05;8.05;;;3.55;;
76852;SDS011;65825;52.232;10.566;2023-02-28T15:17:38;5.82;;;3.60;;
76852;SDS011;65825;52.232;10.566;2023-02-28T15:20:11;7.03;;;3.10;;
76852;SDS011;65825;52.232;10.566;2023-02-28T15:22:38;7.75;;;3.28;;
76852;SDS011;65825;52.232;10.566;2023-02-28T15:25:04;5.63;;;3.25;;
76852;SDS011;65825;52.232;10.566;2023-02-28T15:27:33;6.72;;;3.65;;
76852;SDS011;65825;52.232;10.566;2023-02-28T15:30:05;6.13;;;3.20;;
76852;SDS011;65825;52.232;10.566;2023-02-28T15:32:39;6.68;;;3.58;;
76852;SDS011;65825;52.232;10.566;2023-02-28T15:35:18;8.90;;;3.78;;
76852;SDS011;65825;52.232;10.566;2023-02-28T15:37:56;14.57;;;5.95;;
76852;SDS011;65825;52.232;10.566;2023-02-28T15:40:26;5.18;;;2.95;;
76852;SDS011;65825;52.232;10.566;2023-02-28T15:48:28;7.88;;;3.72;;
76852;SDS011;65825;52.232;10.566;2023-02-28T15:53:37;6.90;;;3.25;;
76852;SDS011;65825;52.232;10.566;2023-02-28T15:58:49;7.70;;;3.47;;
76852;SDS011;65825;52.232;10.566;2023-02-28T16:01:18;7.28;;;3.05;;
76852;SDS011;65825;52.232;10.566;2023-02-28T16:03:49;7.70;;;3.58;;
76852;SDS011;65825;52.232;10.566;2023-02-28T16:08:47;6.43;;;3.42;;
76852;SDS011;65825;52.232;10.566;2023-02-28T16:11:13;6.80;;;3.58;;
76852;SDS011;65825;52.232;10.566;2023-02-28T16:13:39;6.47;;;3.30;;
76852;SDS011;65825;52.232;10.566;2023-02-28T16:16:05;6.25;;;3.28;;
76852;SDS011;65825;52.232;10.566;2023-02-28T16:18:30;6.68;;;3.20;;
76852;SDS011;65825;52.232;10.566;2023-02-28T16:20:58;7.50;;;3.28;;
76852;SDS011;65825;52.232;10.566;2023-02-28T16:23:23;7.47;;;3.30;;
76852;SDS011;65825;52.232;10.566;2023-02-28T16:25:49;5.75;;;3.10;;
76852;SDS011;65825;52.232;10.566;2023-02-28T16:28:17;6.05;;;2.88;;
76852;SDS011;65825;52.232;10.566;2023-02-28T16:30:45;5.10;;;3.08;;
76852;SDS011;65825;52.232;10.566;2023-02-28T16:33:10;6.47;;;2.67;;
76852;SDS011;65825;52.232;10.566;2023-02-28T16:35:35;6.10;;;3.30;;
76852;SDS011;65825;52.232;10.566;2023-02-28T16:38:01;8.40;;;4.03;;
76852;SDS011;65825;52.232;10.566;2023-02-28T16:40:26;9.88;;;3.42;;
76852;SDS011;65825;52.232;10.566;2023-02-28T16:42:54;5.90;;;3.05;;
76852;SDS011;65825;52.232;10.566;2023-02-28T16:45:24;5.20;;;2.85;;
76852;SDS011;65825;52.232;10.566;2023-02-28T16:47:51;6.32;;;2.90;;
76852;SDS011;65825;52.232;10.566;2023-02-28T16:50:18;7.72;;;3.05;;
76852;SDS011;65825;52.232;10.566;2023-02-28T16:52:45;7.55;;;2.92;;
76852;SDS011;65825;52.232;10.566;2023-02-28T16:55:11;7.28;;;2.90;;
76852;SDS011;65825;52.232;10.566;2023-02-28T16:57:37;4.88;;;2.58;;
76852;SDS011;65825;52.232;10.566;2023-02-28T17:00:04;6.00;;;2.60;;
76852;SDS011;65825;52.232;10.566;2023-02-28T17:02:32;4.78;;;2.60;;
76852;SDS011;65825;52.232;10.566;2023-02-28T17:04:58;6.63;;;2.57;;
76852;SDS011;65825;52.232;10.566;2023-02-28T17:07:25;5.25;;;2.80;;
76852;SDS011;65825;52.232;10.566;2023-02-28T17:09:53;5.65;;;2.50;;
76852;SDS011;65825;52.232;10.566;2023-02-28T17:12:18;5.93;;;2.87;;
76852;SDS011;65825;52.232;10.566;2023-02-28T17:14:43;6.07;;;2.77;;
76852;SDS011;65825;52.232;10.566;2023-02-28T17:17:10;6.27;;;2.60;;
76852;SDS011;65825;52.232;10.566;2023-02-28T17:19:45;8.75;;;2.95;;